Time;durP1;ratioP1;P1;durP2;ratioP2;P2;SDS_P1;SDS_P2;PMS_P1;PMS_P2;Temp;Humidity;BMP_temperature;BMP_pressure;BME280_temperature;BME280_humidity;BME280_pressure;Samples;Min_cycle;Max_cycle;Signal;HPM_P1;HPM_P2
2024/03/03 00:00:12;;;;;;;15.48;8.88;;;9.10;99.90;;;;;;5000935;28;20287;-64
2024/03/03 00:02:38;;;;;;;15.77;9.30;;;9.00;99.90;;;;;;5001136;28;20220;-65
2024/03/03 00:05:04;;;;;;;16.08;8.93;;;9.00;99.90;;;;;;5000916;28;20245;-64
2024/03/03 00:07:29;;;;;;;15.45;8.88;;;9.00;99.90;;;;;;5001458;28;20730;-65
2024/03/03 00:09:55;;;;;;;14.95;9.10;;;9.00;99.90;;;;;;5001468;28;20212;-64
2024/03/03 00:12:21;;;;;;;12.52;8.80;;;9.00;99.90;;;;;;5001016;28;20227;-63
2024/03/03 00:14:46;;;;;;;15.10;8.80;;;9.00;99.90;;;;;;5000990;28;20660;-63
2024/03/03 00:17:13;;;;;;;13.45;8.52;;;9.00;99.90;;;;;;5000966;28;20653;-65
2024/03/03 00:19:41;;;;;;;13.57;8.90;;;9.00;99.90;;;;;;5002864;28;20238;-64
2024/03/03 00:22:08;;;;;;;13.70;9.10;;;9.10;99.90;;;;;;5005679;28;20200;-64
2024/03/03 00:24:34;;;;;;;14.70;9.45;;;9.10;99.90;;;;;;5004198;28;20199;-66
2024/03/03 00:26:59;;;;;;;13.50;8.65;;;9.20;99.90;;;;;;5004659;28;20573;-63
2024/03/03 00:29:25;;;;;;;13.00;8.85;;;9.20;99.90;;;;;;5004604;28;20258;-66
2024/03/03 00:31:51;;;;;;;16.83;10.20;;;9.20;99.90;;;;;;5005145;28;20541;-65
2024/03/03 00:34:17;;;;;;;15.50;9.82;;;9.20;99.90;;;;;;5020221;28;20193;-62
2024/03/03 00:36:43;;;;;;;14.25;9.30;;;9.30;99.90;;;;;;5004262;28;20254;-64
2024/03/03 00:39:08;;;;;;;17.50;9.85;;;9.30;99.90;;;;;;5019859;28;20176;-63
2024/03/03 00:41:34;;;;;;;15.27;9.45;;;9.30;99.90;;;;;;5004699;28;20188;-65
2024/03/03 00:44:00;;;;;;;16.10;9.73;;;9.30;99.90;;;;;;5004654;28;20268;-65
2024/03/03 00:46:25;;;;;;;15.52;10.75;;;9.30;99.90;;;;;;5003406;28;20231;-65
2024/03/03 00:48:51;;;;;;;14.32;10.32;;;9.30;99.90;;;;;;5004494;28;20193;-64
2024/03/03 00:51:17;;;;;;;21.05;10.15;;;9.30;99.90;;;;;;5003529;28;20731;-63
2024/03/03 00:53:42;;;;;;;16.20;10.40;;;9.40;99.90;;;;;;5003157;28;20188;-64
2024/03/03 00:56:08;;;;;;;15.93;10.45;;;9.40;99.90;;;;;;5004421;28;20306;-63
2024/03/03 00:58:34;;;;;;;19.40;10.70;;;9.40;99.90;;;;;;5006550;28;20207;-64
2024/03/03 01:01:00;;;;;;;18.67;10.05;;;9.50;99.90;;;;;;5019287;28;20204;-64
2024/03/03 01:03:26;;;;;;;15.80;10.73;;;9.50;99.90;;;;;;5003033;28;20185;-66
2024/03/03 01:05:52;;;;;;;18.98;10.95;;;9.50;99.90;;;;;;5019402;28;20239;-64
2024/03/03 01:08:18;;;;;;;16.92;10.75;;;9.60;99.90;;;;;;5003821;28;20686;-65
2024/03/03 01:10:44;;;;;;;16.48;10.60;;;9.60;99.90;;;;;;5018946;28;20216;-66
2024/03/03 01:13:09;;;;;;;16.42;10.45;;;9.60;99.90;;;;;;5005794;28;20264;-63
2024/03/03 01:15:35;;;;;;;17.75;11.63;;;9.70;99.90;;;;;;5003886;28;20173;-65
2024/03/03 01:18:01;;;;;;;17.80;11.48;;;9.70;99.90;;;;;;5003980;28;20192;-64
2024/03/03 01:20:27;;;;;;;15.63;10.25;;;9.70;99.90;;;;;;5003570;28;20710;-64
2024/03/03 01:22:53;;;;;;;16.92;11.43;;;9.70;99.90;;;;;;5005065;28;20196;-65
2024/03/03 01:25:19;;;;;;;18.77;11.70;;;9.80;99.90;;;;;;5018987;28;20203;-64
2024/03/03 01:27:44;;;;;;;22.27;11.93;;;9.80;99.90;;;;;;5019076;28;20185;-63
2024/03/03 01:30:10;;;;;;;19.27;11.82;;;9.80;99.90;;;;;;5002645;28;20676;-64
2024/03/03 01:32:36;;;;;;;19.15;11.80;;;9.80;99.90;;;;;;5017693;28;20200;-65
2024/03/03 01:35:02;;;;;;;18.77;11.80;;;9.80;99.90;;;;;;5002433;28;20196;-63
2024/03/03 01:37:28;;;;;;;19.33;12.18;;;9.90;99.90;;;;;;5004867;28;20268;-63
2024/03/03 01:39:54;;;;;;;19.77;12.32;;;9.80;99.90;;;;;;5004178;28;20669;-65
2024/03/03 01:42:19;;;;;;;19.77;11.35;;;9.80;99.90;;;;;;5004011;28;20266;-64
2024/03/03 01:44:45;;;;;;;18.52;11.98;;;9.80;99.90;;;;;;5003235;28;20219;-64
2024/03/03 01:47:13;;;;;;;20.17;11.75;;;9.80;99.90;;;;;;5003449;28;20291;-65
2024/03/03 01:49:40;;;;;;;17.90;12.07;;;9.80;99.90;;;;;;5003744;28;20711;-65
2024/03/03 01:52:10;;;;;;;19.10;12.60;;;9.80;99.90;;;;;;5002159;28;21246;-65
2024/03/03 01:54:37;;;;;;;19.30;12.63;;;9.80;99.90;;;;;;5003572;28;20250;-64
2024/03/03 01:57:09;;;;;;;20.92;12.13;;;9.80;99.90;;;;;;4997738;28;20506;-65
2024/03/03 01:59:40;;;;;;;20.73;11.82;;;9.80;99.90;;;;;;5002039;28;20184;-64
2024/03/03 02:02:07;;;;;;;20.10;11.57;;;9.80;99.90;;;;;;5018594;28;20235;-65
2024/03/03 02:04:34;;;;;;;23.23;12.38;;;9.80;99.90;;;;;;5002139;28;20347;-65
2024/03/03 02:07:01;;;;;;;18.15;12.73;;;9.80;99.90;;;;;;5018515;28;20258;-64
2024/03/03 02:09:27;;;;;;;23.23;12.32;;;9.80;99.90;;;;;;5017890;28;20599;-64
2024/03/03 02:11:53;;;;;;;17.83;11.73;;;9.80;99.90;;;;;;5018024;28;20581;-64
2024/03/03 02:14:19;;;;;;;19.13;12.07;;;9.80;99.90;;;;;;5018270;28;20188;-65
2024/03/03 02:16:45;;;;;;;19.63;11.80;;;9.90;99.90;;;;;;5002813;28;20185;-64
2024/03/03 02:19:11;;;;;;;18.92;12.60;;;9.80;99.90;;;;;;5003827;28;20196;-64
2024/03/03 02:21:37;;;;;;;19.65;12.25;;;9.80;99.90;;;;;;5002915;28;21027;-65
2024/03/03 02:24:03;;;;;;;18.02;11.90;;;9.80;99.90;;;;;;5017952;28;20192;-63
2024/03/03 02:26:29;;;;;;;19.52;12.52;;;9.80;99.90;;;;;;5017793;28;20184;-65
2024/03/03 02:28:56;;;;;;;20.52;11.77;;;9.80;99.90;;;;;;5002873;28;20205;-64
2024/03/03 02:31:22;;;;;;;16.77;11.98;;;9.80;99.90;;;;;;5002693;28;20291;-65
2024/03/03 02:33:48;;;;;;;19.10;11.65;;;9.80;99.90;;;;;;5002841;28;20326;-65
2024/03/03 02:36:13;;;;;;;19.17;11.82;;;9.80;99.90;;;;;;5002745;28;20508;-65
2024/03/03 02:38:47;;;;;;;20.08;12.25;;;9.80;99.90;;;;;;5002516;28;20195;-66
2024/03/03 02:41:13;;;;;;;19.77;12.70;;;9.90;99.90;;;;;;5017394;28;20200;-65
2024/03/03 02:43:39;;;;;;;18.88;11.90;;;9.80;99.90;;;;;;5001161;28;20506;-65
2024/03/03 02:46:04;;;;;;;18.75;11.15;;;9.90;99.90;;;;;;5000878;28;20203;-65
2024/03/03 02:48:31;;;;;;;19.88;12.40;;;9.90;99.90;;;;;;5003533;28;20192;-64
2024/03/03 02:50:57;;;;;;;18.58;11.88;;;9.90;99.90;;;;;;5002540;28;20208;-66
2024/03/03 02:53:22;;;;;;;18.02;12.25;;;9.90;99.90;;;;;;5002436;28;20188;-64
2024/03/03 02:55:48;;;;;;;19.95;12.75;;;9.90;99.90;;;;;;5002400;28;20238;-64
2024/03/03 02:58:14;;;;;;;19.20;12.23;;;9.90;99.90;;;;;;5003193;28;20173;-63
2024/03/03 03:00:40;;;;;;;17.55;11.85;;;9.90;99.90;;;;;;5000782;28;20227;-64
2024/03/03 03:03:06;;;;;;;19.95;12.07;;;9.90;99.90;;;;;;5017352;28;20608;-65
2024/03/03 03:05:32;;;;;;;18.67;12.55;;;9.90;99.90;;;;;;5001070;28;21028;-65
2024/03/03 03:07:58;;;;;;;18.17;12.00;;;9.90;99.90;;;;;;5002431;28;20212;-66
2024/03/03 03:10:24;;;;;;;19.85;12.35;;;9.90;99.90;;;;;;5000557;28;20268;-66
2024/03/03 03:12:50;;;;;;;16.05;11.50;;;9.90;99.90;;;;;;5002680;28;20173;-66
2024/03/03 03:15:15;;;;;;;18.77;12.27;;;9.90;99.90;;;;;;5001422;28;20207;-63
2024/03/03 03:17:42;;;;;;;18.92;12.02;;;9.80;99.90;;;;;;5001767;28;20189;-63
2024/03/03 03:20:08;;;;;;;17.63;11.77;;;9.80;99.90;;;;;;5001576;28;20192;-64
2024/03/03 03:22:33;;;;;;;19.20;11.80;;;9.80;99.90;;;;;;5016520;28;20200;-63
2024/03/03 03:24:59;;;;;;;17.33;11.75;;;9.80;99.90;;;;;;5001743;28;20256;-65
2024/03/03 03:27:25;;;;;;;16.48;11.85;;;9.80;99.90;;;;;;5000654;28;20205;-64
2024/03/03 03:29:50;;;;;;;17.45;12.18;;;9.80;99.90;;;;;;5000382;28;20291;-65
2024/03/03 03:32:16;;;;;;;18.23;11.43;;;9.80;99.90;;;;;;5001335;28;20192;-63
2024/03/03 03:34:48;;;;;;;17.90;12.40;;;9.80;99.90;;;;;;5001453;28;20184;-65
2024/03/03 03:37:13;;;;;;;18.48;12.02;;;9.70;99.90;;;;;;5001397;28;20243;-65
2024/03/03 03:39:39;;;;;;;19.38;11.88;;;9.70;99.90;;;;;;5001666;28;20661;-66
2024/03/03 03:42:05;;;;;;;18.55;12.15;;;9.60;99.90;;;;;;5001605;28;20188;-65
2024/03/03 03:44:32;;;;;;;17.85;12.13;;;9.60;99.90;;;;;;5001700;28;20271;-64
2024/03/03 03:46:57;;;;;;;18.50;11.50;;;9.60;99.90;;;;;;5000825;28;20579;-65
2024/03/03 03:49:23;;;;;;;16.67;11.30;;;9.50;99.90;;;;;;5001546;28;20224;-65
2024/03/03 03:51:49;;;;;;;18.48;12.02;;;9.40;99.90;;;;;;5001010;28;20727;-64
2024/03/03 03:54:15;;;;;;;18.23;11.75;;;9.30;99.90;;;;;;5000866;28;20192;-65
2024/03/03 03:56:40;;;;;;;19.30;11.90;;;9.30;99.90;;;;;;5002073;28;20185;-66
2024/03/03 03:59:06;;;;;;;17.02;11.30;;;9.20;99.90;;;;;;5000758;28;20191;-65
2024/03/03 04:01:32;;;;;;;20.80;11.68;;;9.10;99.90;;;;;;5001403;28;20193;-63
2024/03/03 04:03:58;;;;;;;16.27;10.98;;;9.00;99.90;;;;;;5001505;28;20299;-64
2024/03/03 04:06:25;;;;;;;17.95;11.45;;;8.90;99.90;;;;;;5000731;28;20188;-64
2024/03/03 04:08:52;;;;;;;18.00;11.85;;;8.90;99.90;;;;;;5002390;28;20668;-65
2024/03/03 04:11:19;;;;;;;18.95;11.80;;;8.90;99.90;;;;;;5001111;28;20266;-65
2024/03/03 04:13:49;;;;;;;18.55;12.48;;;8.90;99.90;;;;;;5001225;28;20168;-67
2024/03/03 04:16:15;;;;;;;18.70;11.05;;;8.80;99.90;;;;;;5001019;28;20180;-64
2024/03/03 04:18:41;;;;;;;19.80;11.20;;;8.80;99.90;;;;;;5000886;28;20181;-66
2024/03/03 04:21:06;;;;;;;17.70;11.93;;;8.80;99.90;;;;;;5000632;28;20268;-64
2024/03/03 04:23:32;;;;;;;19.45;11.82;;;8.80;99.90;;;;;;5016152;28;20196;-65
2024/03/03 04:25:58;;;;;;;17.27;11.50;;;8.80;99.90;;;;;;5001320;28;20196;-64
2024/03/03 04:28:24;;;;;;;20.92;12.18;;;8.80;99.90;;;;;;5000845;28;20254;-64
2024/03/03 04:30:50;;;;;;;18.20;12.45;;;8.80;99.90;;;;;;5000585;28;20290;-65
2024/03/03 04:33:16;;;;;;;16.70;11.68;;;8.80;99.90;;;;;;5001090;28;20188;-65
2024/03/03 04:35:42;;;;;;;19.55;12.43;;;8.70;99.90;;;;;;4999509;28;20192;-64
2024/03/03 04:38:11;;;;;;;20.10;12.63;;;8.70;99.90;;;;;;5001077;28;20673;-65
2024/03/03 04:40:37;;;;;;;20.15;12.93;;;8.70;99.90;;;;;;5000606;28;20196;-65
2024/03/03 04:43:03;;;;;;;19.00;13.15;;;8.60;99.90;;;;;;4999269;28;20196;-65
2024/03/03 04:45:29;;;;;;;21.15;13.77;;;8.60;99.90;;;;;;5000600;28;20196;-66
2024/03/03 04:47:55;;;;;;;21.67;13.30;;;8.50;99.90;;;;;;5000665;28;20231;-65
2024/03/03 04:50:21;;;;;;;21.55;13.45;;;8.50;99.90;;;;;;5000928;28;21072;-65
2024/03/03 04:52:46;;;;;;;23.88;14.18;;;8.50;99.90;;;;;;5000737;28;20231;-64
2024/03/03 04:55:12;;;;;;;22.38;14.27;;;8.40;99.90;;;;;;5000958;28;20329;-65
2024/03/03 04:57:38;;;;;;;21.80;14.85;;;8.40;99.90;;;;;;5000495;28;20212;-65
2024/03/03 05:00:08;;;;;;;23.83;14.00;;;8.40;99.90;;;;;;5001007;28;20196;-65
2024/03/03 05:02:36;;;;;;;22.65;14.98;;;8.30;99.90;;;;;;5000908;28;20197;-65
2024/03/03 05:05:03;;;;;;;20.63;14.27;;;8.30;99.90;;;;;;5001285;28;20196;-66
2024/03/03 05:07:30;;;;;;;28.55;16.10;;;8.20;99.90;;;;;;5004068;28;20193;-68
2024/03/03 05:09:56;;;;;;;26.70;16.80;;;8.10;99.90;;;;;;5004407;28;20657;-65
2024/03/03 05:12:21;;;;;;;26.17;16.50;;;8.10;99.90;;;;;;5002825;28;20185;-65
2024/03/03 05:14:47;;;;;;;26.27;16.33;;;8.10;99.90;;;;;;5003966;28;20208;-69
2024/03/03 05:17:14;;;;;;;26.33;16.70;;;8.00;99.90;;;;;;5003902;28;20268;-68
2024/03/03 05:19:40;;;;;;;24.73;16.65;;;8.00;99.90;;;;;;5003863;28;20181;-68
2024/03/03 05:22:07;;;;;;;27.63;17.67;;;8.00;99.90;;;;;;5002794;28;20243;-68
2024/03/03 05:24:33;;;;;;;27.83;17.98;;;8.00;99.90;;;;;;5004118;28;20200;-67
2024/03/03 05:26:59;;;;;;;27.98;17.88;;;7.90;99.90;;;;;;5003560;28;20620;-68
2024/03/03 05:29:26;;;;;;;27.15;17.13;;;7.90;99.90;;;;;;5004221;28;20292;-68
2024/03/03 05:31:52;;;;;;;26.00;17.83;;;7.80;99.90;;;;;;5018345;28;20715;-69
2024/03/03 05:34:18;;;;;;;30.05;17.95;;;7.90;99.90;;;;;;5003953;28;20185;-67
2024/03/03 05:36:45;;;;;;;29.58;18.90;;;7.80;99.90;;;;;;5003608;28;20677;-70
2024/03/03 05:39:12;;;;;;;27.63;17.83;;;7.80;99.90;;;;;;5003815;28;20284;-67
2024/03/03 05:41:39;;;;;;;27.48;17.90;;;7.80;99.90;;;;;;5003513;28;20188;-68
2024/03/03 05:44:06;;;;;;;29.58;19.10;;;7.90;99.90;;;;;;5003782;28;20195;-69
2024/03/03 05:46:33;;;;;;;30.73;19.23;;;7.90;99.90;;;;;;5018335;28;20224;-67
2024/03/03 05:48:59;;;;;;;26.83;18.02;;;7.90;99.90;;;;;;5003584;28;20204;-68
2024/03/03 05:51:25;;;;;;;30.85;19.63;;;7.80;99.90;;;;;;5006197;28;20212;-68
2024/03/03 05:53:50;;;;;;;29.25;18.70;;;7.80;99.90;;;;;;5003326;28;20196;-68
2024/03/03 05:56:16;;;;;;;32.55;19.83;;;7.70;99.90;;;;;;5002670;28;20228;-70
2024/03/03 05:58:43;;;;;;;31.98;20.33;;;7.60;99.90;;;;;;5002165;28;20255;-68
2024/03/03 06:01:09;;;;;;;33.47;20.92;;;7.60;99.90;;;;;;5003211;28;20201;-68
2024/03/03 06:03:35;;;;;;;33.58;21.23;;;7.60;99.90;;;;;;5003385;28;20193;-68
2024/03/03 06:06:02;;;;;;;33.83;21.15;;;7.50;99.90;;;;;;5002544;28;20193;-69
2024/03/03 06:08:28;;;;;;;33.83;20.85;;;7.50;99.90;;;;;;5003655;28;20284;-70
2024/03/03 06:10:54;;;;;;;38.25;21.83;;;7.40;99.90;;;;;;5003180;28;21732;-69
2024/03/03 06:13:19;;;;;;;36.55;22.33;;;7.40;99.90;;;;;;5005642;28;20251;-70
2024/03/03 06:15:47;;;;;;;33.70;21.55;;;7.40;99.90;;;;;;5003801;28;20203;-68
2024/03/03 06:18:14;;;;;;;35.03;22.73;;;7.40;99.90;;;;;;5000733;28;20538;-68
2024/03/03 06:20:40;;;;;;;34.65;22.02;;;7.40;99.90;;;;;;5003209;28;20188;-67
2024/03/03 06:23:05;;;;;;;35.08;22.33;;;7.30;99.90;;;;;;5001535;28;20653;-65
2024/03/03 06:25:31;;;;;;;33.67;21.92;;;7.40;99.90;;;;;;5002804;28;20197;-70
2024/03/03 06:27:58;;;;;;;36.25;21.70;;;7.30;99.90;;;;;;5017865;28;20196;-66
2024/03/03 06:30:24;;;;;;;34.03;23.20;;;7.30;99.90;;;;;;5002772;28;21214;-67
2024/03/03 06:32:50;;;;;;;37.10;23.38;;;7.30;99.90;;;;;;5003292;28;20195;-73
2024/03/03 06:35:16;;;;;;;39.47;24.30;;;7.30;99.90;;;;;;5001829;28;20199;-68
2024/03/03 06:37:43;;;;;;;35.80;23.60;;;7.30;99.90;;;;;;5002166;28;20238;-67
2024/03/03 06:40:10;;;;;;;37.10;23.75;;;7.30;99.90;;;;;;5003086;28;20193;-71
2024/03/03 06:42:41;;;;;;;38.40;24.33;;;7.30;99.90;;;;;;5002525;28;20338;-69
2024/03/03 06:45:08;;;;;;;38.55;24.17;;;7.20;99.90;;;;;;5002637;28;20205;-69
2024/03/03 06:47:34;;;;;;;39.60;24.98;;;7.30;99.90;;;;;;5001388;28;20315;-67
2024/03/03 06:50:00;;;;;;;39.80;25.23;;;7.30;99.90;;;;;;5002513;28;20223;-67
2024/03/03 06:52:30;;;;;;;44.95;26.20;;;7.30;99.90;;;;;;5002553;28;21113;-75
2024/03/03 06:54:56;;;;;;;43.97;25.58;;;7.30;99.90;;;;;;5002137;28;20232;-69
2024/03/03 06:57:22;;;;;;;40.80;26.23;;;7.30;99.90;;;;;;5003775;28;20296;-66
2024/03/03 06:59:48;;;;;;;44.20;25.30;;;7.30;99.90;;;;;;5001766;28;20199;-65
2024/03/03 07:02:14;;;;;;;43.28;25.00;;;7.30;99.90;;;;;;5002193;28;20195;-64
2024/03/03 07:04:41;;;;;;;39.10;25.50;;;7.40;99.90;;;;;;5002909;28;20247;-72
2024/03/03 07:07:07;;;;;;;41.17;25.67;;;7.40;99.90;;;;;;5001712;28;20200;-69
2024/03/03 07:09:32;;;;;;;43.45;25.60;;;7.40;99.90;;;;;;5005846;28;20188;-69
2024/03/03 07:12:01;;;;;;;41.45;25.17;;;7.40;99.90;;;;;;5001412;28;20287;-68
2024/03/03 07:14:27;;;;;;;43.42;26.33;;;7.40;99.90;;;;;;5001838;28;20200;-65
2024/03/03 07:16:53;;;;;;;38.72;24.80;;;7.50;99.90;;;;;;5017097;28;20638;-71
2024/03/03 07:19:19;;;;;;;41.42;25.25;;;7.50;99.90;;;;;;5000336;28;20187;-65
2024/03/03 07:21:45;;;;;;;41.58;25.42;;;7.50;99.90;;;;;;5002195;28;20184;-66
2024/03/03 07:24:11;;;;;;;39.17;25.75;;;7.50;99.90;;;;;;5002050;28;20509;-63
2024/03/03 07:26:37;;;;;;;43.85;25.83;;;7.50;99.90;;;;;;5015997;28;20657;-64
2024/03/03 07:29:03;;;;;;;43.00;25.70;;;7.60;99.90;;;;;;5000154;28;20192;-63
2024/03/03 07:31:29;;;;;;;39.85;25.58;;;7.60;99.90;;;;;;5000589;28;20219;-65
2024/03/03 07:33:55;;;;;;;37.13;24.55;;;7.60;99.90;;;;;;5001129;28;20200;-65
2024/03/03 07:36:21;;;;;;;41.85;25.20;;;7.70;99.90;;;;;;5002120;28;20188;-66
2024/03/03 07:38:47;;;;;;;40.88;24.30;;;7.80;99.90;;;;;;5000653;28;20196;-67
2024/03/03 07:41:12;;;;;;;40.50;25.30;;;7.80;99.90;;;;;;4999714;28;20227;-64
2024/03/03 07:43:38;;;;;;;39.90;23.58;;;7.90;99.90;;;;;;5001044;28;20204;-65
2024/03/03 07:46:04;;;;;;;40.60;25.20;;;8.00;99.90;;;;;;5004502;28;20681;-65
2024/03/03 07:48:31;;;;;;;39.15;23.63;;;8.10;99.90;;;;;;5001015;28;20238;-65
2024/03/03 07:50:57;;;;;;;39.00;24.67;;;8.20;99.90;;;;;;5001386;28;20244;-65
2024/03/03 07:53:23;;;;;;;38.42;23.95;;;8.20;99.90;;;;;;5001708;28;20219;-64
2024/03/03 07:55:49;;;;;;;38.25;24.23;;;8.40;99.90;;;;;;5001101;28;20657;-64
2024/03/03 07:58:14;;;;;;;34.97;23.85;;;8.40;99.90;;;;;;5001127;28;20608;-65
2024/03/03 08:00:41;;;;;;;36.92;23.30;;;8.50;99.90;;;;;;5001677;28;20193;-66
2024/03/03 08:03:10;;;;;;;35.85;22.58;;;8.70;99.90;;;;;;5000845;28;20204;-64
2024/03/03 08:05:36;;;;;;;34.53;22.58;;;8.80;99.90;;;;;;5001416;28;20562;-65
2024/03/03 08:08:03;;;;;;;36.58;22.45;;;8.90;99.90;;;;;;5000532;28;20193;-64
2024/03/03 08:10:29;;;;;;;32.83;21.65;;;9.00;99.90;;;;;;5015715;28;20292;-64
2024/03/03 08:12:55;;;;;;;36.17;22.30;;;9.10;99.90;;;;;;5000732;28;20279;-65
2024/03/03 08:15:22;;;;;;;33.20;21.50;;;9.20;99.90;;;;;;4999928;28;20780;-64
2024/03/03 08:17:48;;;;;;;40.92;22.27;;;9.30;99.90;;;;;;5014777;28;20303;-69
2024/03/03 08:20:14;;;;;;;34.13;22.42;;;9.40;99.90;;;;;;5000086;28;20279;-63
2024/03/03 08:22:41;;;;;;;31.88;21.00;;;9.50;99.90;;;;;;4999768;28;20335;-64
2024/03/03 08:25:16;;;;;;;33.13;21.45;;;9.60;99.90;;;;;;5001241;28;20200;-64
2024/03/03 08:27:42;;;;;;;31.60;19.67;;;9.70;99.90;;;;;;5000804;28;20243;-66
2024/03/03 08:30:11;;;;;;;31.38;20.60;;;9.80;99.90;;;;;;4999484;28;20918;-73
2024/03/03 08:32:38;;;;;;;34.42;21.52;;;9.90;99.90;;;;;;5014522;28;20283;-64
2024/03/03 08:35:05;;;;;;;33.67;19.75;;;10.00;99.90;;;;;;5001086;28;20203;-72
2024/03/03 08:37:31;;;;;;;29.90;19.17;;;10.10;99.90;;;;;;4999866;28;20197;-64
2024/03/03 08:39:57;;;;;;;30.55;19.50;;;10.20;99.90;;;;;;5000844;28;20243;-64
2024/03/03 08:42:23;;;;;;;30.73;19.42;;;10.20;99.90;;;;;;5019981;28;20189;-65
2024/03/03 08:44:49;;;;;;;33.13;19.65;;;10.30;99.90;;;;;;5004214;28;20216;-66
2024/03/03 08:47:15;;;;;;;33.00;20.30;;;10.30;99.90;;;;;;5004415;28;20275;-66
2024/03/03 08:49:41;;;;;;;30.58;19.98;;;10.40;99.90;;;;;;5004306;28;20996;-65
2024/03/03 08:52:07;;;;;;;30.65;19.10;;;10.50;99.90;;;;;;5004606;28;20197;-64
2024/03/03 08:54:33;;;;;;;31.02;19.40;;;10.50;99.90;;;;;;5004562;28;20723;-66
2024/03/03 08:56:59;;;;;;;28.17;19.45;;;10.60;99.90;;;;;;5009824;28;20188;-65
2024/03/03 08:59:24;;;;;;;29.80;20.38;;;10.60;99.90;;;;;;5003473;28;20704;-66
2024/03/03 09:01:50;;;;;;;30.63;19.52;;;10.70;99.90;;;;;;5001519;28;20196;-67
2024/03/03 09:04:16;;;;;;;33.95;19.15;;;10.80;99.90;;;;;;5003781;28;20216;-64
2024/03/03 09:06:42;;;;;;;33.85;19.55;;;10.90;99.90;;;;;;5003202;28;20225;-63
2024/03/03 09:09:11;;;;;;;30.45;19.73;;;10.90;99.90;;;;;;4999196;28;20315;-66
2024/03/03 09:11:36;;;;;;;30.52;19.27;;;11.00;99.90;;;;;;5002521;28;20244;-66
2024/03/03 09:14:02;;;;;;;33.70;21.20;;;11.00;99.90;;;;;;5002566;28;20296;-65
2024/03/03 09:16:28;;;;;;;31.25;20.08;;;11.00;99.90;;;;;;5003180;28;20188;-64
2024/03/03 09:18:54;;;;;;;31.75;19.27;;;11.00;99.90;;;;;;5003183;28;20190;-66
2024/03/03 09:21:21;;;;;;;29.02;18.55;;;11.00;99.90;;;;;;5002410;28;20279;-66
2024/03/03 09:23:47;;;;;;;30.48;19.80;;;11.00;99.90;;;;;;5003309;28;20184;-67
2024/03/03 09:26:14;;;;;;;33.63;19.75;;;11.10;99.90;;;;;;5017818;28;20192;-65
2024/03/03 09:28:40;;;;;;;32.65;20.00;;;11.10;99.90;;;;;;5003026;28;20318;-66
2024/03/03 09:31:06;;;;;;;29.90;18.52;;;11.20;99.90;;;;;;5001430;28;20381;-64
2024/03/03 09:33:32;;;;;;;27.55;17.75;;;11.20;99.90;;;;;;5002499;28;21325;-65
2024/03/03 09:35:58;;;;;;;30.02;18.65;;;11.30;99.90;;;;;;5002252;28;20618;-67
2024/03/03 09:38:24;;;;;;;28.13;18.08;;;11.40;99.90;;;;;;5002402;28;20669;-65
2024/03/03 09:40:50;;;;;;;27.52;16.75;;;11.50;99.90;;;;;;5003614;28;20204;-78
2024/03/03 09:43:16;;;;;;;25.48;16.73;;;11.60;99.90;;;;;;5002412;28;20219;-67
2024/03/03 09:45:52;;;;;;;28.95;17.25;;;11.70;99.90;;;;;;5003238;28;20200;-65
2024/03/03 09:48:20;;;;;;;23.10;15.57;;;11.70;99.90;;;;;;5002381;28;20228;-71
2024/03/03 09:50:50;;;;;;;27.98;16.90;;;11.80;99.90;;;;;;5002494;28;20270;-66
2024/03/03 09:53:16;;;;;;;23.65;16.48;;;11.80;99.90;;;;;;5001437;28;20276;-72
2024/03/03 09:55:44;;;;;;;27.15;16.50;;;11.90;99.90;;;;;;5000710;28;20197;-78
2024/03/03 09:58:11;;;;;;;25.27;16.65;;;11.90;99.90;;;;;;5002494;28;20188;-66
2024/03/03 10:00:37;;;;;;;23.77;16.27;;;11.90;99.90;;;;;;5002465;28;20184;-68
2024/03/03 10:03:06;;;;;;;25.25;16.15;;;12.00;99.90;;;;;;5002329;28;20275;-66
2024/03/03 10:05:35;;;;;;;25.30;16.98;;;12.00;99.90;;;;;;5002107;28;20209;-67
2024/03/03 10:08:03;;;;;;;24.20;16.98;;;12.00;99.90;;;;;;5001345;28;20212;-67
2024/03/03 10:10:35;;;;;;;31.60;18.55;;;12.00;99.90;;;;;;5001830;28;20299;-66
2024/03/03 10:13:05;;;;;;;25.00;17.98;;;12.00;99.90;;;;;;5001844;28;20280;-66
2024/03/03 10:15:31;;;;;;;24.33;17.02;;;12.00;99.90;;;;;;5001575;28;20215;-67
2024/03/03 10:17:57;;;;;;;27.10;18.13;;;12.00;99.90;;;;;;5002213;28;20193;-66
2024/03/03 10:20:25;;;;;;;29.90;18.23;;;12.00;99.90;;;;;;5001082;28;20192;-73
2024/03/03 10:22:52;;;;;;;27.27;18.20;;;12.10;99.90;;;;;;5001132;28;20200;-73
2024/03/03 10:25:18;;;;;;;27.88;18.65;;;12.10;99.90;;;;;;5000131;28;20196;-67
2024/03/03 10:27:46;;;;;;;28.40;18.00;;;12.20;99.90;;;;;;5001240;28;20275;-66
2024/03/03 10:30:14;;;;;;;31.23;17.77;;;12.30;99.90;;;;;;5002198;28;20286;-65
2024/03/03 10:32:41;;;;;;;28.23;18.23;;;12.30;99.90;;;;;;5002546;28;20231;-65
2024/03/03 10:35:11;;;;;;;30.15;18.27;;;12.40;99.90;;;;;;5001976;28;20193;-66
2024/03/03 10:38:01;;;;;;;28.15;17.08;;;12.50;99.90;;;;;;5017062;28;20279;-66
2024/03/03 10:40:32;;;;;;;27.33;18.23;;;12.60;99.90;;;;;;5002273;28;20193;-67
2024/03/03 10:42:57;;;;;;;30.08;18.98;;;12.60;99.90;;;;;;5002603;28;20932;-66
2024/03/03 10:45:24;;;;;;;29.15;19.05;;;12.70;99.90;;;;;;5002429;28;20220;-65
2024/03/03 10:47:50;;;;;;;27.10;18.45;;;12.80;99.90;;;;;;5002055;28;20973;-64
2024/03/03 10:50:18;;;;;;;29.50;18.58;;;12.80;99.90;;;;;;5001480;28;20231;-66
2024/03/03 10:52:44;;;;;;;34.47;19.15;;;12.90;99.90;;;;;;5001561;28;20208;-71
2024/03/03 10:55:11;;;;;;;30.77;19.45;;;12.90;99.90;;;;;;5001389;28;20189;-66
2024/03/03 10:57:38;;;;;;;29.13;19.30;;;12.90;99.90;;;;;;5001289;28;20200;-66
2024/03/03 11:00:06;;;;;;;30.33;19.73;;;13.00;99.90;;;;;;5001149;28;20188;-68
2024/03/03 11:02:34;;;;;;;32.90;20.52;;;13.10;99.90;;;;;;4999745;28;20200;-66
2024/03/03 11:05:04;;;;;;;31.00;20.13;;;13.10;99.90;;;;;;5000472;28;20187;-67
2024/03/03 11:07:31;;;;;;;32.85;19.63;;;13.20;99.90;;;;;;5001582;28;20199;-66
2024/03/03 11:09:57;;;;;;;27.77;18.73;;;13.30;99.90;;;;;;5000332;28;20251;-65
2024/03/03 11:12:26;;;;;;;28.90;18.83;;;13.40;99.90;;;;;;5000190;28;20207;-66
2024/03/03 11:14:56;;;;;;;30.33;20.50;;;13.50;99.90;;;;;;5000814;28;20177;-67
2024/03/03 11:17:26;;;;;;;29.23;19.15;;;13.60;99.90;;;;;;4999548;28;20654;-67
2024/03/03 11:19:52;;;;;;;33.75;19.60;;;13.70;99.90;;;;;;5002120;28;20219;-66
2024/03/03 11:22:24;;;;;;;27.25;18.75;;;13.80;99.90;;;;;;5002011;28;20271;-66
2024/03/03 11:24:57;;;;;;;27.58;18.73;;;13.90;99.90;;;;;;5000302;28;20204;-67
2024/03/03 11:27:26;;;;;;;29.27;18.40;;;14.00;99.90;;;;;;5001392;28;20191;-66
2024/03/03 11:29:52;;;;;;;28.52;18.38;;;14.00;99.90;;;;;;5000119;28;20172;-67
2024/03/03 11:32:21;;;;;;;24.83;17.88;;;14.10;99.90;;;;;;5000207;28;20191;-67
2024/03/03 11:34:50;;;;;;;26.10;17.92;;;14.20;99.90;;;;;;5000604;28;20185;-66
2024/03/03 11:37:16;;;;;;;28.73;17.35;;;14.20;99.90;;;;;;5000471;28;20263;-65
2024/03/03 11:39:53;;;;;;;25.88;16.92;;;14.30;99.90;;;;;;5000488;28;20196;-67
2024/03/03 11:42:37;;;;;;;24.67;16.85;;;14.30;99.90;;;;;;5000662;28;20242;-64
2024/03/03 11:45:03;;;;;;;26.33;16.65;;;14.30;99.90;;;;;;5001335;28;20180;-66
2024/03/03 11:47:33;;;;;;;25.98;17.15;;;14.40;99.90;;;;;;5000936;28;20236;-66
2024/03/03 11:50:00;;;;;;;28.10;16.85;;;14.40;99.90;;;;;;5015471;28;20196;-66
2024/03/03 11:52:43;;;;;;;30.10;17.52;;;14.50;99.90;;;;;;4999937;28;20185;-68
2024/03/03 11:55:30;;;;;;;24.73;16.75;;;14.60;99.90;;;;;;5000735;28;20188;-66
2024/03/03 11:57:58;;;;;;;26.88;17.98;;;14.60;99.90;;;;;;4999889;28;20259;-66
2024/03/03 12:00:24;;;;;;;30.58;19.65;;;14.70;99.90;;;;;;5000531;28;20943;-66
2024/03/03 12:02:51;;;;;;;31.38;19.38;;;14.70;99.90;;;;;;4999827;28;20211;-67
2024/03/03 12:05:17;;;;;;;27.00;18.98;;;14.80;99.90;;;;;;5000572;28;20272;-66
2024/03/03 12:07:53;;;;;;;30.50;20.45;;;14.80;99.90;;;;;;5000971;28;20196;-68
2024/03/03 12:10:28;;;;;;;29.90;19.92;;;14.80;99.90;;;;;;5001368;28;20318;-67
2024/03/03 12:12:55;;;;;;;35.58;21.55;;;14.80;99.90;;;;;;4999481;28;20197;-66
2024/03/03 12:15:23;;;;;;;31.02;20.85;;;14.80;99.90;;;;;;4999127;28;20223;-67
2024/03/03 12:17:54;;;;;;;32.25;20.98;;;14.80;99.90;;;;;;5000860;28;20471;-69
2024/03/03 12:20:28;;;;;;;36.63;22.35;;;14.70;99.90;;;;;;4999398;28;20668;-67
2024/03/03 12:22:54;;;;;;;31.33;21.45;;;14.60;99.90;;;;;;5000168;28;20199;-67
2024/03/03 12:25:24;;;;;;;32.90;22.27;;;14.60;99.90;;;;;;4999680;28;20261;-66
2024/03/03 12:27:52;;;;;;;35.30;21.23;;;14.50;99.90;;;;;;4999678;28;20196;-67
2024/03/03 12:30:43;;;;;;;30.08;20.45;;;14.50;99.90;;;;;;5000294;28;20223;-67